sensor_id;sensor_type;location;lat;lon;timestamp;P1;durP1;ratioP1;P2;durP2;ratioP2
11245;SDS011;59870;50.106;8.580;2023-05-23T00:02:18;40.10;;;30.17;;
11245;SDS011;59870;50.106;8.580;2023-05-23T00:04:46;34.07;;;30.37;;
11245;SDS011;59870;50.106;8.580;2023-05-23T00:07:14;33.90;;;29.43;;
11245;SDS011;59870;50.106;8.580;2023-05-23T00:09:42;37.83;;;29.73;;
11245;SDS011;59870;50.106;8.580;2023-05-23T00:12:09;33.07;;;29.73;;
11245;SDS011;59870;50.106;8.580;2023-05-23T00:14:38;35.93;;;31.73;;
11245;SDS011;59870;50.106;8.580;2023-05-23T00:17:06;39.00;;;34.33;;
11245;SDS011;59870;50.106;8.580;2023-05-23T00:19:36;34.63;;;31.03;;
11245;SDS011;59870;50.106;8.580;2023-05-23T00:22:04;36.63;;;32.30;;
11245;SDS011;59870;50.106;8.580;2023-05-23T00:24:31;34.73;;;31.13;;
11245;SDS011;59870;50.106;8.580;2023-05-23T00:26:59;34.17;;;30.57;;
11245;SDS011;59870;50.106;8.580;2023-05-23T00:29:26;38.37;;;32.47;;
11245;SDS011;59870;50.106;8.580;2023-05-23T00:31:54;36.43;;;32.73;;
11245;SDS011;59870;50.106;8.580;2023-05-23T00:34:22;37.53;;;31.33;;
11245;SDS011;59870;50.106;8.580;2023-05-23T00:36:49;31.37;;;28.17;;
11245;SDS011;59870;50.106;8.580;2023-05-23T00:39:17;32.40;;;28.97;;
11245;SDS011;59870;50.106;8.580;2023-05-23T00:41:49;32.57;;;28.97;;
11245;SDS011;59870;50.106;8.580;2023-05-23T00:44:19;32.53;;;27.93;;
11245;SDS011;59870;50.106;8.580;2023-05-23T00:46:50;31.73;;;28.67;;
11245;SDS011;59870;50.106;8.580;2023-05-23T00:49:21;32.07;;;28.67;;
11245;SDS011;59870;50.106;8.580;2023-05-23T00:51:49;28.07;;;25.37;;
11245;SDS011;59870;50.106;8.580;2023-05-23T00:54:25;30.70;;;27.60;;
11245;SDS011;59870;50.106;8.580;2023-05-23T00:56:57;28.37;;;25.67;;
11245;SDS011;59870;50.106;8.580;2023-05-23T00:59:25;28.60;;;25.77;;
11245;SDS011;59870;50.106;8.580;2023-05-23T01:01:53;27.67;;;25.07;;
11245;SDS011;59870;50.106;8.580;2023-05-23T01:04:22;26.77;;;23.90;;
11245;SDS011;59870;50.106;8.580;2023-05-23T01:06:57;25.47;;;23.03;;
11245;SDS011;59870;50.106;8.580;2023-05-23T01:09:27;25.53;;;23.03;;
11245;SDS011;59870;50.106;8.580;2023-05-23T01:14:49;23.90;;;21.73;;
11245;SDS011;59870;50.106;8.580;2023-05-23T01:20:23;23.70;;;21.20;;
11245;SDS011;59870;50.106;8.580;2023-05-23T01:25:30;23.50;;;21.30;;
11245;SDS011;59870;50.106;8.580;2023-05-23T01:28:27;23.80;;;21.40;;
11245;SDS011;59870;50.106;8.580;2023-05-23T01:30:58;24.57;;;22.17;;
11245;SDS011;59870;50.106;8.580;2023-05-23T01:33:28;22.30;;;20.20;;
11245;SDS011;59870;50.106;8.580;2023-05-23T01:35:59;22.67;;;20.50;;
11245;SDS011;59870;50.106;8.580;2023-05-23T01:38:31;24.30;;;21.77;;
11245;SDS011;59870;50.106;8.580;2023-05-23T01:40:59;23.17;;;21.07;;
11245;SDS011;59870;50.106;8.580;2023-05-23T01:43:26;21.67;;;19.60;;
11245;SDS011;59870;50.106;8.580;2023-05-23T01:45:54;23.53;;;21.03;;
11245;SDS011;59870;50.106;8.580;2023-05-23T01:48:23;21.20;;;19.33;;
11245;SDS011;59870;50.106;8.580;2023-05-23T01:50:53;20.63;;;18.93;;
11245;SDS011;59870;50.106;8.580;2023-05-23T01:53:23;21.30;;;19.50;;
11245;SDS011;59870;50.106;8.580;2023-05-23T01:55:52;21.60;;;19.70;;
11245;SDS011;59870;50.106;8.580;2023-05-23T01:58:21;21.47;;;19.67;;
11245;SDS011;59870;50.106;8.580;2023-05-23T02:00:48;21.97;;;19.80;;
11245;SDS011;59870;50.106;8.580;2023-05-23T02:03:16;21.87;;;20.03;;
11245;SDS011;59870;50.106;8.580;2023-05-23T02:05:44;21.10;;;19.20;;
11245;SDS011;59870;50.106;8.580;2023-05-23T02:08:11;21.87;;;19.97;;
11245;SDS011;59870;50.106;8.580;2023-05-23T02:10:39;22.63;;;20.73;;
11245;SDS011;59870;50.106;8.580;2023-05-23T02:13:07;22.50;;;20.60;;
11245;SDS011;59870;50.106;8.580;2023-05-23T02:15:34;22.70;;;20.67;;
11245;SDS011;59870;50.106;8.580;2023-05-23T02:18:01;22.40;;;20.50;;
11245;SDS011;59870;50.106;8.580;2023-05-23T02:20:30;22.83;;;20.80;;
11245;SDS011;59870;50.106;8.580;2023-05-23T02:22:58;21.93;;;20.07;;
11245;SDS011;59870;50.106;8.580;2023-05-23T02:25:25;22.27;;;20.47;;
11245;SDS011;59870;50.106;8.580;2023-05-23T02:27:52;22.07;;;20.17;;
11245;SDS011;59870;50.106;8.580;2023-05-23T02:30:20;23.20;;;21.10;;
11245;SDS011;59870;50.106;8.580;2023-05-23T02:32:48;22.60;;;20.67;;
11245;SDS011;59870;50.106;8.580;2023-05-23T02:35:17;22.90;;;21.00;;
11245;SDS011;59870;50.106;8.580;2023-05-23T02:37:45;21.30;;;19.60;;
11245;SDS011;59870;50.106;8.580;2023-05-23T02:40:12;21.90;;;19.97;;
11245;SDS011;59870;50.106;8.580;2023-05-23T02:42:40;20.40;;;18.57;;
11245;SDS011;59870;50.106;8.580;2023-05-23T02:45:08;19.53;;;18.00;;
11245;SDS011;59870;50.106;8.580;2023-05-23T02:47:35;19.23;;;17.60;;
11245;SDS011;59870;50.106;8.580;2023-05-23T02:50:03;18.20;;;16.53;;
11245;SDS011;59870;50.106;8.580;2023-05-23T02:52:31;20.10;;;18.20;;
11245;SDS011;59870;50.106;8.580;2023-05-23T02:54:58;18.33;;;16.77;;
11245;SDS011;59870;50.106;8.580;2023-05-23T02:57:26;17.17;;;15.40;;
11245;SDS011;59870;50.106;8.580;2023-05-23T02:59:54;17.23;;;15.83;;
11245;SDS011;59870;50.106;8.580;2023-05-23T03:02:22;16.70;;;15.40;;
11245;SDS011;59870;50.106;8.580;2023-05-23T03:04:50;16.90;;;15.60;;
11245;SDS011;59870;50.106;8.580;2023-05-23T03:07:17;15.27;;;14.17;;
11245;SDS011;59870;50.106;8.580;2023-05-23T03:09:55;15.63;;;14.33;;
11245;SDS011;59870;50.106;8.580;2023-05-23T03:12:22;15.83;;;14.50;;
11245;SDS011;59870;50.106;8.580;2023-05-23T03:14:50;16.60;;;15.27;;
11245;SDS011;59870;50.106;8.580;2023-05-23T03:17:17;15.13;;;13.73;;
11245;SDS011;59870;50.106;8.580;2023-05-23T03:19:45;15.50;;;14.20;;
11245;SDS011;59870;50.106;8.580;2023-05-23T03:22:12;14.47;;;13.17;;
11245;SDS011;59870;50.106;8.580;2023-05-23T03:24:41;15.27;;;13.97;;
11245;SDS011;59870;50.106;8.580;2023-05-23T03:27:10;14.37;;;13.17;;
11245;SDS011;59870;50.106;8.580;2023-05-23T03:29:37;13.23;;;12.23;;
11245;SDS011;59870;50.106;8.580;2023-05-23T03:32:05;13.77;;;12.67;;
11245;SDS011;59870;50.106;8.580;2023-05-23T03:34:33;12.80;;;11.93;;
11245;SDS011;59870;50.106;8.580;2023-05-23T03:37:02;13.30;;;12.30;;
11245;SDS011;59870;50.106;8.580;2023-05-23T03:39:30;11.30;;;10.43;;
11245;SDS011;59870;50.106;8.580;2023-05-23T03:41:57;11.30;;;10.37;;
11245;SDS011;59870;50.106;8.580;2023-05-23T03:44:25;12.23;;;11.23;;
11245;SDS011;59870;50.106;8.580;2023-05-23T03:46:52;11.00;;;10.20;;
11245;SDS011;59870;50.106;8.580;2023-05-23T03:49:20;10.03;;;9.33;;
11245;SDS011;59870;50.106;8.580;2023-05-23T03:51:47;10.60;;;9.90;;
11245;SDS011;59870;50.106;8.580;2023-05-23T03:54:16;12.13;;;11.03;;
11245;SDS011;59870;50.106;8.580;2023-05-23T03:56:44;13.43;;;12.43;;
11245;SDS011;59870;50.106;8.580;2023-05-23T03:59:20;13.97;;;12.77;;
11245;SDS011;59870;50.106;8.580;2023-05-23T04:01:57;15.30;;;13.83;;
11245;SDS011;59870;50.106;8.580;2023-05-23T04:05:15;16.37;;;14.87;;
11245;SDS011;59870;50.106;8.580;2023-05-23T04:08:54;15.10;;;13.80;;
11245;SDS011;59870;50.106;8.580;2023-05-23T04:11:22;17.23;;;15.63;;
11245;SDS011;59870;50.106;8.580;2023-05-23T04:16:53;14.20;;;13.10;;
11245;SDS011;59870;50.106;8.580;2023-05-23T04:19:21;14.53;;;13.23;;
11245;SDS011;59870;50.106;8.580;2023-05-23T04:21:53;15.27;;;14.07;;
11245;SDS011;59870;50.106;8.580;2023-05-23T04:40:11;13.13;;;12.23;;
11245;SDS011;59870;50.106;8.580;2023-05-23T04:43:00;15.40;;;14.20;;
11245;SDS011;59870;50.106;8.580;2023-05-23T04:45:46;15.63;;;14.33;;
11245;SDS011;59870;50.106;8.580;2023-05-23T04:48:56;16.90;;;15.20;;
11245;SDS011;59870;50.106;8.580;2023-05-23T04:55:28;14.13;;;13.00;;
11245;SDS011;59870;50.106;8.580;2023-05-23T04:58:00;14.70;;;13.60;;
11245;SDS011;59870;50.106;8.580;2023-05-23T05:00:29;15.20;;;13.90;;
11245;SDS011;59870;50.106;8.580;2023-05-23T05:02:57;16.67;;;15.37;;
11245;SDS011;59870;50.106;8.580;2023-05-23T05:05:27;16.53;;;15.13;;
11245;SDS011;59870;50.106;8.580;2023-05-23T05:07:55;15.67;;;14.50;;
11245;SDS011;59870;50.106;8.580;2023-05-23T05:10:23;17.17;;;15.77;;
11245;SDS011;59870;50.106;8.580;2023-05-23T05:12:50;18.13;;;16.53;;
11245;SDS011;59870;50.106;8.580;2023-05-23T05:15:18;17.13;;;15.73;;
11245;SDS011;59870;50.106;8.580;2023-05-23T05:17:49;17.60;;;16.10;;
11245;SDS011;59870;50.106;8.580;2023-05-23T05:20:20;15.40;;;14.30;;
11245;SDS011;59870;50.106;8.580;2023-05-23T05:22:53;18.17;;;16.60;;
11245;SDS011;59870;50.106;8.580;2023-05-23T05:25:25;16.27;;;14.87;;
11245;SDS011;59870;50.106;8.580;2023-05-23T05:27:53;15.03;;;13.93;;
11245;SDS011;59870;50.106;8.580;2023-05-23T05:30:21;12.83;;;12.03;;
11245;SDS011;59870;50.106;8.580;2023-05-23T05:32:52;12.87;;;11.97;;
11245;SDS011;59870;50.106;8.580;2023-05-23T05:35:21;11.83;;;11.03;;
11245;SDS011;59870;50.106;8.580;2023-05-23T05:37:48;12.53;;;11.57;;
11245;SDS011;59870;50.106;8.580;2023-05-23T05:40:15;12.83;;;11.93;;
11245;SDS011;59870;50.106;8.580;2023-05-23T05:42:43;12.57;;;11.77;;
11245;SDS011;59870;50.106;8.580;2023-05-23T05:45:11;12.63;;;11.53;;
11245;SDS011;59870;50.106;8.580;2023-05-23T05:47:40;12.60;;;11.80;;
11245;SDS011;59870;50.106;8.580;2023-05-23T05:50:07;12.70;;;11.80;;
11245;SDS011;59870;50.106;8.580;2023-05-23T05:52:36;11.33;;;10.60;;
11245;SDS011;59870;50.106;8.580;2023-05-23T05:55:08;11.47;;;10.77;;
11245;SDS011;59870;50.106;8.580;2023-05-23T05:57:43;11.87;;;11.13;;
11245;SDS011;59870;50.106;8.580;2023-05-23T06:00:17;11.80;;;10.80;;
11245;SDS011;59870;50.106;8.580;2023-05-23T06:02:45;12.63;;;11.57;;
11245;SDS011;59870;50.106;8.580;2023-05-23T06:05:18;11.27;;;10.57;;
11245;SDS011;59870;50.106;8.580;2023-05-23T06:07:47;12.10;;;11.20;;
11245;SDS011;59870;50.106;8.580;2023-05-23T06:10:15;6.47;;;6.07;;
11245;SDS011;59870;50.106;8.580;2023-05-23T06:12:43;5.90;;;5.60;;
11245;SDS011;59870;50.106;8.580;2023-05-23T06:15:12;6.73;;;6.33;;
11245;SDS011;59870;50.106;8.580;2023-05-23T06:17:40;5.77;;;5.37;;
11245;SDS011;59870;50.106;8.580;2023-05-23T06:20:09;5.67;;;5.23;;
11245;SDS011;59870;50.106;8.580;2023-05-23T06:22:41;5.80;;;5.40;;
11245;SDS011;59870;50.106;8.580;2023-05-23T06:25:09;6.00;;;5.70;;
11245;SDS011;59870;50.106;8.580;2023-05-23T06:27:40;6.40;;;6.00;;
11245;SDS011;59870;50.106;8.580;2023-05-23T06:30:08;6.17;;;5.77;;
11245;SDS011;59870;50.106;8.580;2023-05-23T06:32:36;5.47;;;5.17;;
11245;SDS011;59870;50.106;8.580;2023-05-23T06:35:04;5.33;;;5.03;;
11245;SDS011;59870;50.106;8.580;2023-05-23T06:37:33;5.00;;;4.70;;
11245;SDS011;59870;50.106;8.580;2023-05-23T06:40:02;5.43;;;5.13;;
11245;SDS011;59870;50.106;8.580;2023-05-23T06:42:30;5.47;;;4.67;;
11245;SDS011;59870;50.106;8.580;2023-05-23T06:45:08;5.00;;;4.80;;
11245;SDS011;59870;50.106;8.580;2023-05-23T06:47:37;5.43;;;5.13;;
11245;SDS011;59870;50.106;8.580;2023-05-23T06:50:04;5.23;;;4.93;;
11245;SDS011;59870;50.106;8.580;2023-05-23T06:52:32;5.53;;;5.23;;
11245;SDS011;59870;50.106;8.580;2023-05-23T06:55:01;5.57;;;5.27;;
11245;SDS011;59870;50.106;8.580;2023-05-23T06:57:29;5.17;;;4.87;;
11245;SDS011;59870;50.106;8.580;2023-05-23T06:59:57;5.40;;;5.10;;
11245;SDS011;59870;50.106;8.580;2023-05-23T07:02:24;5.60;;;5.30;;
11245;SDS011;59870;50.106;8.580;2023-05-23T07:04:53;5.70;;;5.40;;
11245;SDS011;59870;50.106;8.580;2023-05-23T07:07:41;5.70;;;5.40;;
11245;SDS011;59870;50.106;8.580;2023-05-23T07:10:08;5.47;;;5.17;;
11245;SDS011;59870;50.106;8.580;2023-05-23T07:12:36;5.07;;;4.77;;
11245;SDS011;59870;50.106;8.580;2023-05-23T07:15:04;5.23;;;4.93;;
11245;SDS011;59870;50.106;8.580;2023-05-23T07:17:33;5.53;;;5.23;;
11245;SDS011;59870;50.106;8.580;2023-05-23T07:20:02;5.63;;;5.23;;
11245;SDS011;59870;50.106;8.580;2023-05-23T07:22:32;6.37;;;6.03;;
11245;SDS011;59870;50.106;8.580;2023-05-23T07:25:02;6.17;;;5.87;;
11245;SDS011;59870;50.106;8.580;2023-05-23T07:27:32;6.50;;;6.13;;
11245;SDS011;59870;50.106;8.580;2023-05-23T07:30:00;7.33;;;6.83;;
11245;SDS011;59870;50.106;8.580;2023-05-23T07:32:31;6.93;;;6.60;;
11245;SDS011;59870;50.106;8.580;2023-05-23T07:34:59;7.73;;;7.33;;
11245;SDS011;59870;50.106;8.580;2023-05-23T07:37:26;7.47;;;7.07;;
11245;SDS011;59870;50.106;8.580;2023-05-23T07:39:54;7.47;;;7.07;;
11245;SDS011;59870;50.106;8.580;2023-05-23T07:42:21;7.00;;;6.50;;
11245;SDS011;59870;50.106;8.580;2023-05-23T07:44:49;6.60;;;6.10;;
11245;SDS011;59870;50.106;8.580;2023-05-23T07:47:16;6.07;;;5.67;;
11245;SDS011;59870;50.106;8.580;2023-05-23T07:49:45;6.67;;;6.27;;
11245;SDS011;59870;50.106;8.580;2023-05-23T07:52:13;6.43;;;6.03;;
11245;SDS011;59870;50.106;8.580;2023-05-23T07:54:42;6.57;;;6.17;;
11245;SDS011;59870;50.106;8.580;2023-05-23T07:57:11;5.80;;;5.27;;
11245;SDS011;59870;50.106;8.580;2023-05-23T07:59:43;5.27;;;5.07;;
11245;SDS011;59870;50.106;8.580;2023-05-23T08:02:12;6.47;;;5.37;;
11245;SDS011;59870;50.106;8.580;2023-05-23T08:04:40;5.77;;;5.37;;
11245;SDS011;59870;50.106;8.580;2023-05-23T08:07:08;4.97;;;4.77;;
11245;SDS011;59870;50.106;8.580;2023-05-23T08:09:52;5.67;;;5.37;;
11245;SDS011;59870;50.106;8.580;2023-05-23T08:12:20;5.37;;;4.97;;
11245;SDS011;59870;50.106;8.580;2023-05-23T08:14:55;5.27;;;4.97;;
11245;SDS011;59870;50.106;8.580;2023-05-23T08:17:29;5.30;;;4.90;;
11245;SDS011;59870;50.106;8.580;2023-05-23T08:19:57;4.90;;;4.60;;
11245;SDS011;59870;50.106;8.580;2023-05-23T08:22:29;5.27;;;4.97;;
11245;SDS011;59870;50.106;8.580;2023-05-23T08:24:58;5.43;;;5.10;;
11245;SDS011;59870;50.106;8.580;2023-05-23T08:27:27;4.93;;;4.63;;
11245;SDS011;59870;50.106;8.580;2023-05-23T08:29:59;5.07;;;4.80;;
11245;SDS011;59870;50.106;8.580;2023-05-23T08:32:28;5.10;;;4.87;;
11245;SDS011;59870;50.106;8.580;2023-05-23T08:34:57;5.17;;;4.87;;
11245;SDS011;59870;50.106;8.580;2023-05-23T08:37:25;5.07;;;4.77;;
11245;SDS011;59870;50.106;8.580;2023-05-23T08:39:53;5.03;;;4.73;;
11245;SDS011;59870;50.106;8.580;2023-05-23T08:42:34;5.47;;;5.17;;
11245;SDS011;59870;50.106;8.580;2023-05-23T08:45:02;4.80;;;4.50;;
11245;SDS011;59870;50.106;8.580;2023-05-23T08:47:30;4.83;;;4.53;;
11245;SDS011;59870;50.106;8.580;2023-05-23T08:50:05;7.32;;;4.43;;
11245;SDS011;59870;50.106;8.580;2023-05-23T08:52:35;4.33;;;4.13;;
11245;SDS011;59870;50.106;8.580;2023-05-23T08:55:09;4.63;;;4.33;;
11245;SDS011;59870;50.106;8.580;2023-05-23T08:57:38;4.00;;;3.80;;
11245;SDS011;59870;50.106;8.580;2023-05-23T09:00:29;4.10;;;3.90;;
11245;SDS011;59870;50.106;8.580;2023-05-23T09:02:57;4.60;;;4.30;;
11245;SDS011;59870;50.106;8.580;2023-05-23T09:05:45;4.77;;;4.40;;
11245;SDS011;59870;50.106;8.580;2023-05-23T09:08:15;4.50;;;4.30;;
11245;SDS011;59870;50.106;8.580;2023-05-23T09:10:43;4.70;;;4.50;;
11245;SDS011;59870;50.106;8.580;2023-05-23T09:13:12;5.80;;;4.30;;
11245;SDS011;59870;50.106;8.580;2023-05-23T09:18:38;4.13;;;3.93;;
11245;SDS011;59870;50.106;8.580;2023-05-23T09:21:09;4.40;;;4.10;;
11245;SDS011;59870;50.106;8.580;2023-05-23T09:23:47;4.20;;;3.80;;
11245;SDS011;59870;50.106;8.580;2023-05-23T09:26:15;3.97;;;3.77;;
11245;SDS011;59870;50.106;8.580;2023-05-23T09:28:43;5.07;;;4.07;;
11245;SDS011;59870;50.106;8.580;2023-05-23T09:31:11;4.17;;;3.87;;
11245;SDS011;59870;50.106;8.580;2023-05-23T09:36:09;4.00;;;3.80;;
11245;SDS011;59870;50.106;8.580;2023-05-23T09:38:37;4.83;;;4.37;;
11245;SDS011;59870;50.106;8.580;2023-05-23T09:41:06;4.20;;;3.97;;
11245;SDS011;59870;50.106;8.580;2023-05-23T09:43:33;3.93;;;3.70;;
11245;SDS011;59870;50.106;8.580;2023-05-23T09:48:56;3.87;;;3.67;;
11245;SDS011;59870;50.106;8.580;2023-05-23T09:51:26;4.67;;;4.37;;
11245;SDS011;59870;50.106;8.580;2023-05-23T09:53:55;4.70;;;4.40;;
11245;SDS011;59870;50.106;8.580;2023-05-23T09:56:23;4.30;;;4.00;;
11245;SDS011;59870;50.106;8.580;2023-05-23T09:58:52;3.90;;;3.70;;
11245;SDS011;59870;50.106;8.580;2023-05-23T10:01:20;4.07;;;3.87;;
11245;SDS011;59870;50.106;8.580;2023-05-23T10:03:51;4.50;;;4.20;;
11245;SDS011;59870;50.106;8.580;2023-05-23T10:06:43;4.03;;;3.83;;
11245;SDS011;59870;50.106;8.580;2023-05-23T10:09:20;4.60;;;4.40;;
11245;SDS011;59870;50.106;8.580;2023-05-23T10:14:41;4.50;;;4.20;;
11245;SDS011;59870;50.106;8.580;2023-05-23T10:17:17;4.20;;;3.90;;
11245;SDS011;59870;50.106;8.580;2023-05-23T10:22:27;4.60;;;4.30;;
11245;SDS011;59870;50.106;8.580;2023-05-23T10:24:55;4.83;;;4.53;;
11245;SDS011;59870;50.106;8.580;2023-05-23T10:27:25;4.80;;;4.50;;
11245;SDS011;59870;50.106;8.580;2023-05-23T10:29:53;4.73;;;4.30;;
11245;SDS011;59870;50.106;8.580;2023-05-23T10:32:21;3.73;;;3.53;;
11245;SDS011;59870;50.106;8.580;2023-05-23T10:34:58;4.43;;;4.13;;
11245;SDS011;59870;50.106;8.580;2023-05-23T10:43:07;4.17;;;3.90;;
11245;SDS011;59870;50.106;8.580;2023-05-23T10:45:42;4.30;;;4.10;;
11245;SDS011;59870;50.106;8.580;2023-05-23T10:48:30;4.10;;;3.70;;
11245;SDS011;59870;50.106;8.580;2023-05-23T10:51:05;4.57;;;4.27;;
11245;SDS011;59870;50.106;8.580;2023-05-23T10:53:40;4.93;;;4.70;;
11245;SDS011;59870;50.106;8.580;2023-05-23T10:56:10;4.70;;;4.40;;
11245;SDS011;59870;50.106;8.580;2023-05-23T10:58:52;4.57;;;4.27;;
11245;SDS011;59870;50.106;8.580;2023-05-23T11:01:20;4.30;;;4.10;;
11245;SDS011;59870;50.106;8.580;2023-05-23T11:03:49;4.13;;;3.93;;
11245;SDS011;59870;50.106;8.580;2023-05-23T11:19:38;3.97;;;3.77;;
11245;SDS011;59870;50.106;8.580;2023-05-23T11:22:07;5.40;;;4.90;;
11245;SDS011;59870;50.106;8.580;2023-05-23T11:24:48;5.37;;;4.87;;
11245;SDS011;59870;50.106;8.580;2023-05-23T11:27:30;4.37;;;4.07;;
11245;SDS011;59870;50.106;8.580;2023-05-23T11:30:17;5.00;;;4.80;;
11245;SDS011;59870;50.106;8.580;2023-05-23T11:32:52;4.97;;;4.63;;
11245;SDS011;59870;50.106;8.580;2023-05-23T11:35:23;5.17;;;4.87;;
11245;SDS011;59870;50.106;8.580;2023-05-23T11:37:51;5.47;;;5.07;;
11245;SDS011;59870;50.106;8.580;2023-05-23T11:42:53;4.70;;;4.40;;
11245;SDS011;59870;50.106;8.580;2023-05-23T11:45:21;4.00;;;3.80;;
11245;SDS011;59870;50.106;8.580;2023-05-23T11:47:49;4.50;;;4.30;;
11245;SDS011;59870;50.106;8.580;2023-05-23T11:50:16;4.37;;;3.80;;
11245;SDS011;59870;50.106;8.580;2023-05-23T11:52:46;5.67;;;4.33;;
11245;SDS011;59870;50.106;8.580;2023-05-23T11:55:18;4.07;;;3.87;;
11245;SDS011;59870;50.106;8.580;2023-05-23T11:57:47;3.97;;;3.77;;
11245;SDS011;59870;50.106;8.580;2023-05-23T12:00:15;4.47;;;4.27;;
11245;SDS011;59870;50.106;8.580;2023-05-23T12:02:45;4.23;;;4.03;;
11245;SDS011;59870;50.106;8.580;2023-05-23T12:05:16;3.93;;;3.73;;
11245;SDS011;59870;50.106;8.580;2023-05-23T12:07:47;3.83;;;3.60;;
11245;SDS011;59870;50.106;8.580;2023-05-23T12:10:15;3.67;;;3.47;;
11245;SDS011;59870;50.106;8.580;2023-05-23T12:12:44;3.67;;;3.47;;
11245;SDS011;59870;50.106;8.580;2023-05-23T12:15:11;3.80;;;3.60;;
11245;SDS011;59870;50.106;8.580;2023-05-23T12:17:43;3.17;;;2.87;;
11245;SDS011;59870;50.106;8.580;2023-05-23T12:20:15;4.00;;;3.70;;
11245;SDS011;59870;50.106;8.580;2023-05-23T12:22:43;3.00;;;2.90;;
11245;SDS011;59870;50.106;8.580;2023-05-23T12:25:11;2.53;;;2.43;;
11245;SDS011;59870;50.106;8.580;2023-05-23T12:27:39;2.50;;;2.40;;
11245;SDS011;59870;50.106;8.580;2023-05-23T12:30:12;2.73;;;2.63;;
11245;SDS011;59870;50.106;8.580;2023-05-23T12:32:41;2.67;;;2.57;;
11245;SDS011;59870;50.106;8.580;2023-05-23T12:35:12;3.00;;;2.90;;
11245;SDS011;59870;50.106;8.580;2023-05-23T12:37:42;3.30;;;3.10;;
11245;SDS011;59870;50.106;8.580;2023-05-23T12:40:12;3.30;;;3.10;;
11245;SDS011;59870;50.106;8.580;2023-05-23T12:42:50;3.00;;;2.80;;
11245;SDS011;59870;50.106;8.580;2023-05-23T12:45:24;18.03;;;3.30;;
11245;SDS011;59870;50.106;8.580;2023-05-23T12:48:04;4.00;;;3.80;;
11245;SDS011;59870;50.106;8.580;2023-05-23T12:50:34;4.30;;;4.00;;
11245;SDS011;59870;50.106;8.580;2023-05-23T12:53:02;4.37;;;4.10;;
11245;SDS011;59870;50.106;8.580;2023-05-23T12:55:29;4.00;;;3.80;;
11245;SDS011;59870;50.106;8.580;2023-05-23T12:57:59;4.57;;;4.27;;
11245;SDS011;59870;50.106;8.580;2023-05-23T13:00:28;4.33;;;4.03;;
11245;SDS011;59870;50.106;8.580;2023-05-23T13:02:55;4.50;;;4.20;;
11245;SDS011;59870;50.106;8.580;2023-05-23T13:05:24;4.37;;;3.97;;
11245;SDS011;59870;50.106;8.580;2023-05-23T13:07:55;5.50;;;3.87;;
11245;SDS011;59870;50.106;8.580;2023-05-23T13:10:26;4.03;;;3.83;;
11245;SDS011;59870;50.106;8.580;2023-05-23T13:12:57;4.13;;;3.83;;
11245;SDS011;59870;50.106;8.580;2023-05-23T13:15:25;4.10;;;3.80;;
11245;SDS011;59870;50.106;8.580;2023-05-23T13:17:52;4.13;;;3.93;;
11245;SDS011;59870;50.106;8.580;2023-05-23T13:20:24;4.10;;;3.90;;
11245;SDS011;59870;50.106;8.580;2023-05-23T13:22:56;4.27;;;4.00;;
11245;SDS011;59870;50.106;8.580;2023-05-23T13:25:25;3.60;;;3.30;;
11245;SDS011;59870;50.106;8.580;2023-05-23T13:27:55;5.40;;;3.70;;
11245;SDS011;59870;50.106;8.580;2023-05-23T13:30:23;5.17;;;4.60;;
11245;SDS011;59870;50.106;8.580;2023-05-23T13:32:51;4.40;;;4.20;;
11245;SDS011;59870;50.106;8.580;2023-05-23T13:35:18;4.70;;;4.00;;
11245;SDS011;59870;50.106;8.580;2023-05-23T13:37:46;4.20;;;4.00;;
11245;SDS011;59870;50.106;8.580;2023-05-23T13:40:17;4.63;;;4.33;;
11245;SDS011;59870;50.106;8.580;2023-05-23T13:42:46;4.97;;;4.53;;
11245;SDS011;59870;50.106;8.580;2023-05-23T13:45:19;6.63;;;4.97;;
11245;SDS011;59870;50.106;8.580;2023-05-23T13:47:48;5.17;;;4.77;;
11245;SDS011;59870;50.106;8.580;2023-05-23T13:50:16;4.60;;;4.40;;
11245;SDS011;59870;50.106;8.580;2023-05-23T13:52:44;4.43;;;4.13;;
11245;SDS011;59870;50.106;8.580;2023-05-23T13:55:15;4.57;;;4.17;;
11245;SDS011;59870;50.106;8.580;2023-05-23T13:57:44;4.90;;;4.60;;
11245;SDS011;59870;50.106;8.580;2023-05-23T14:00:13;5.37;;;4.43;;
11245;SDS011;59870;50.106;8.580;2023-05-23T14:02:41;4.87;;;4.47;;
11245;SDS011;59870;50.106;8.580;2023-05-23T14:05:08;4.60;;;4.30;;
11245;SDS011;59870;50.106;8.580;2023-05-23T14:07:36;5.27;;;4.90;;
11245;SDS011;59870;50.106;8.580;2023-05-23T14:10:05;4.63;;;4.23;;
11245;SDS011;59870;50.106;8.580;2023-05-23T14:12:35;4.40;;;4.17;;
11245;SDS011;59870;50.106;8.580;2023-05-23T14:15:03;5.87;;;5.47;;
11245;SDS011;59870;50.106;8.580;2023-05-23T14:17:31;6.23;;;5.60;;
11245;SDS011;59870;50.106;8.580;2023-05-23T14:19:58;6.40;;;5.80;;
11245;SDS011;59870;50.106;8.580;2023-05-23T14:22:26;5.83;;;5.43;;
11245;SDS011;59870;50.106;8.580;2023-05-23T14:24:53;7.27;;;5.53;;
11245;SDS011;59870;50.106;8.580;2023-05-23T14:27:21;5.37;;;5.00;;
11245;SDS011;59870;50.106;8.580;2023-05-23T14:29:48;7.10;;;6.60;;
11245;SDS011;59870;50.106;8.580;2023-05-23T14:32:16;6.63;;;5.97;;
11245;SDS011;59870;50.106;8.580;2023-05-23T14:34:43;6.43;;;5.83;;
11245;SDS011;59870;50.106;8.580;2023-05-23T14:37:12;6.23;;;5.73;;
11245;SDS011;59870;50.106;8.580;2023-05-23T14:39:40;7.57;;;6.00;;
11245;SDS011;59870;50.106;8.580;2023-05-23T14:42:07;6.67;;;6.07;;
11245;SDS011;59870;50.106;8.580;2023-05-23T14:44:35;6.57;;;6.07;;
11245;SDS011;59870;50.106;8.580;2023-05-23T14:47:03;7.20;;;6.40;;
11245;SDS011;59870;50.106;8.580;2023-05-23T14:49:30;6.87;;;6.23;;
11245;SDS011;59870;50.106;8.580;2023-05-23T14:51:58;8.30;;;6.77;;
11245;SDS011;59870;50.106;8.580;2023-05-23T14:54:25;7.00;;;6.40;;
11245;SDS011;59870;50.106;8.580;2023-05-23T14:56:53;7.70;;;6.83;;
11245;SDS011;59870;50.106;8.580;2023-05-23T14:59:20;6.17;;;5.57;;
11245;SDS011;59870;50.106;8.580;2023-05-23T15:01:49;7.87;;;6.80;;
11245;SDS011;59870;50.106;8.580;2023-05-23T15:04:18;7.27;;;6.67;;
11245;SDS011;59870;50.106;8.580;2023-05-23T15:06:46;6.57;;;5.97;;
11245;SDS011;59870;50.106;8.580;2023-05-23T15:09:14;6.30;;;5.70;;
11245;SDS011;59870;50.106;8.580;2023-05-23T15:11:45;5.70;;;5.20;;
11245;SDS011;59870;50.106;8.580;2023-05-23T15:14:15;5.07;;;4.67;;
11245;SDS011;59870;50.106;8.580;2023-05-23T15:16:43;5.80;;;5.23;;
11245;SDS011;59870;50.106;8.580;2023-05-23T15:19:11;6.03;;;5.40;;
11245;SDS011;59870;50.106;8.580;2023-05-23T15:21:38;6.13;;;5.53;;
11245;SDS011;59870;50.106;8.580;2023-05-23T15:24:16;5.77;;;5.47;;
11245;SDS011;59870;50.106;8.580;2023-05-23T15:26:43;5.83;;;5.33;;
11245;SDS011;59870;50.106;8.580;2023-05-23T15:29:11;6.00;;;5.60;;
11245;SDS011;59870;50.106;8.580;2023-05-23T15:31:40;5.00;;;4.70;;
11245;SDS011;59870;50.106;8.580;2023-05-23T15:34:07;5.37;;;5.03;;
11245;SDS011;59870;50.106;8.580;2023-05-23T15:36:35;5.53;;;5.23;;
11245;SDS011;59870;50.106;8.580;2023-05-23T15:39:09;5.40;;;5.10;;
11245;SDS011;59870;50.106;8.580;2023-05-23T15:41:37;6.23;;;5.53;;
11245;SDS011;59870;50.106;8.580;2023-05-23T15:44:06;6.03;;;5.53;;
11245;SDS011;59870;50.106;8.580;2023-05-23T15:46:33;5.63;;;5.23;;
11245;SDS011;59870;50.106;8.580;2023-05-23T15:49:03;5.13;;;4.83;;
11245;SDS011;59870;50.106;8.580;2023-05-23T15:51:50;4.90;;;4.60;;
11245;SDS011;59870;50.106;8.580;2023-05-23T15:54:19;4.30;;;4.10;;
11245;SDS011;59870;50.106;8.580;2023-05-23T15:56:47;5.03;;;4.70;;
11245;SDS011;59870;50.106;8.580;2023-05-23T15:59:15;5.37;;;4.57;;
11245;SDS011;59870;50.106;8.580;2023-05-23T16:01:43;5.27;;;4.97;;
11245;SDS011;59870;50.106;8.580;2023-05-23T16:04:12;4.80;;;4.50;;